Terminal Aerodrome Forecast
Issued by NWS

Home | Current Version | Previous Version | Text Only | Print | Product List | Glossary On
Versions: 1 2 3 4 5 6 7 8 9 10 11 12 13 14 15 16 17
000
FTUS46 KPQR 191145
TAFONP
TAF
KONP 191145Z 1912/2012 20012G23KT 6SM -SHRA SCT025 OVC050
     FM191800 20022G30KT 5SM -SHRA BKN025 OVC050
     FM192300 21011G22KT P6SM -SHRA SCT025 OVC050
     FM200300 19012KT P6SM -SHRA SCT025 BKN050
     FM200600 12006KT 6SM -RA OVC050=

USA.gov is the U.S. government's official web portal to all federal, state and local government web resources and services.